Hector International Airport


Codes: KFAR/FAR
Name: Hector International Airport
City: Fargo
Country: United States
Elevation: 902 ft.
Website:
Wikipedia:

Photos at Hector International Airport


   Photos courtesy of SpottingLog. You can add your own sightings and photos by signing up for a free trial today.



No photos found.

Weather at Hector International Airport


Time (UTC)DescriptionTempratureWindCloud coverageVisibilityPressureHumidity
17-Jun-2024 06:00Few Clouds17°C7 mph, NW20%10000m1008hPa55%
17-Jun-2024 09:00Broken Clouds15°C9 mph, NW65%10000m1009hPa57%
17-Jun-2024 12:00Overcast Clouds14°C2 mph, NW99%10000m1011hPa73%
17-Jun-2024 15:00Light Rain16°C4 mph, NE100%10000m1011hPa68%
17-Jun-2024 18:00Overcast Clouds19°C7 mph, SE100%10000m1010hPa61%
17-Jun-2024 21:00Overcast Clouds18°C9 mph, SE100%10000m1008hPa72%
18-Jun-2024 00:00Light Rain15°C7 mph, SE100%9070m1006hPa90%
18-Jun-2024 03:00Light Rain15°C9 mph, E100%10000m1004hPa95%
18-Jun-2024 06:00Moderate Rain16°C9 mph, E100%9049m1001hPa97%
18-Jun-2024 09:00Moderate Rain17°C7 mph, E100%10000m998hPa99%
18-Jun-2024 12:00Moderate Rain18°C7 mph, S100%124m997hPa99%
18-Jun-2024 15:00Light Rain16°C13 mph, NW100%280m998hPa99%
18-Jun-2024 18:00Moderate Rain13°C13 mph, NW100%3736m1001hPa98%
18-Jun-2024 21:00Light Rain12°C13 mph, NW100%10000m1005hPa97%
19-Jun-2024 00:00Light Rain11°C13 mph, NW100%10000m1009hPa93%
19-Jun-2024 03:00Overcast Clouds12°C13 mph, NW100%10000m1013hPa91%
19-Jun-2024 06:00Overcast Clouds12°C11 mph, NW100%10000m1017hPa86%
19-Jun-2024 09:00Overcast Clouds8°C7 mph, NW87%10000m1021hPa92%
19-Jun-2024 12:00Scattered Clouds9°C7 mph, NW48%10000m1024hPa85%
19-Jun-2024 15:00Overcast Clouds15°C7 mph, NW89%10000m1025hPa68%
19-Jun-2024 18:00Overcast Clouds18°C4 mph, NW85%10000m1026hPa55%
19-Jun-2024 21:00Clear Sky19°C4 mph, E0%10000m1026hPa53%
20-Jun-2024 00:00Few Clouds19°C4 mph, SE14%10000m1025hPa65%
20-Jun-2024 03:00Broken Clouds14°C4 mph, SE74%10000m1026hPa77%
20-Jun-2024 06:00Overcast Clouds13°C2 mph, E87%10000m1027hPa83%
20-Jun-2024 09:00Overcast Clouds13°C7 mph, E92%10000m1027hPa78%
20-Jun-2024 12:00Broken Clouds13°C7 mph, E74%10000m1027hPa83%
20-Jun-2024 15:00Overcast Clouds17°C11 mph, SE91%10000m1026hPa72%
20-Jun-2024 18:00Overcast Clouds17°C11 mph, SE93%10000m1026hPa81%
20-Jun-2024 21:00Overcast Clouds16°C9 mph, SE99%10000m1024hPa87%
21-Jun-2024 00:00Light Rain15°C9 mph, SE100%10000m1023hPa93%
21-Jun-2024 03:00Overcast Clouds14°C4 mph, SE100%10000m1023hPa95%
21-Jun-2024 06:00Light Rain15°C4 mph, NE100%8169m1022hPa98%
21-Jun-2024 09:00Moderate Rain15°C4 mph, E100%10000m1020hPa99%
21-Jun-2024 12:00Light Rain15°C7 mph, NE100%10000m1018hPa98%
21-Jun-2024 15:00Light Rain16°C7 mph, NE100%10000m1018hPa98%
21-Jun-2024 18:00Moderate Rain17°C9 mph, NE100%5151m1015hPa98%
21-Jun-2024 21:00Moderate Rain19°C7 mph, NE100%309m1013hPa99%
22-Jun-2024 00:00Moderate Rain18°C11 mph, N100%0m1010hPa99%
22-Jun-2024 03:00Heavy Intensity Rain18°C18 mph, NE100%3839m1009hPa98%